createdAt,value
2022-10-02T00:04:01.588Z,100.00
2022-10-02T00:12:22.974Z,100.00
2022-10-02T00:18:08.184Z,100.00
2022-10-02T00:23:42.954Z,100.00
2022-10-02T00:29:36.372Z,100.00
2022-10-02T00:35:37.228Z,100.00
2022-10-02T00:42:06.886Z,100.00
2022-10-02T00:48:06.645Z,100.00
2022-10-02T00:50:58.640Z,100.00
2022-10-02T00:56:39.937Z,100.00
2022-10-02T01:03:01.012Z,100.00
2022-10-02T01:08:30.839Z,100.00
2022-10-02T01:14:05.416Z,100.00
2022-10-02T01:19:42.739Z,100.00
2022-10-02T01:25:19.579Z,100.00
2022-10-02T01:28:08.094Z,100.00
2022-10-02T01:33:43.192Z,100.00
2022-10-02T01:36:32.986Z,100.00
2022-10-02T01:39:21.525Z,100.00
2022-10-02T01:44:56.796Z,100.00
2022-10-02T01:50:33.943Z,100.00
2022-10-02T01:56:15.859Z,100.00
2022-10-02T02:01:58.535Z,100.00
2022-10-02T02:10:27.588Z,100.00
2022-10-02T02:16:10.835Z,100.00
2022-10-02T02:19:04.746Z,100.00
2022-10-02T02:24:44.574Z,100.00
2022-10-02T02:30:15.761Z,100.00
2022-10-02T02:35:57.474Z,100.00
2022-10-02T02:41:31.664Z,100.00
2022-10-02T02:44:22.838Z,100.00
2022-10-02T02:47:14.826Z,100.00
2022-10-02T02:50:05.767Z,100.00
2022-10-02T02:55:45.144Z,100.00
2022-10-02T03:04:02.289Z,100.00
2022-10-02T03:12:23.088Z,100.00
2022-10-02T03:15:28.466Z,100.00
2022-10-02T03:21:21.928Z,100.00
2022-10-02T03:24:14.669Z,100.00
2022-10-02T03:30:06.314Z,100.00
2022-10-02T03:35:46.789Z,100.00
2022-10-02T03:41:21.348Z,100.00
2022-10-02T03:49:47.139Z,100.00
2022-10-02T03:58:18.895Z,100.00
2022-10-02T04:06:45.457Z,100.00
2022-10-02T04:12:28.393Z,100.00
2022-10-02T04:18:11.641Z,100.00
2022-10-02T04:23:51.551Z,100.00
2022-10-02T04:29:29.470Z,100.00
2022-10-02T04:37:55.833Z,100.00
2022-10-02T04:43:37.872Z,100.00
2022-10-02T04:49:34.636Z,100.00
2022-10-02T04:55:57.074Z,100.00
2022-10-02T05:01:58.432Z,100.00
2022-10-02T05:07:59.582Z,100.00
2022-10-02T05:23:07.604Z,100.00
2022-10-02T05:33:02.627Z,100.00
2022-10-02T05:39:03.578Z,100.00
2022-10-02T05:41:54.870Z,100.00
2022-10-02T05:47:33.130Z,100.00
2022-10-02T05:53:15.682Z,100.00
2022-10-02T05:56:07.856Z,100.00
2022-10-02T06:01:44.979Z,100.00
2022-10-02T06:07:22.417Z,100.00
2022-10-02T06:15:43.177Z,100.00
2022-10-02T06:21:16.319Z,100.00
2022-10-02T06:24:09.703Z,100.00
2022-10-02T06:29:42.794Z,100.00
2022-10-02T06:35:17.122Z,100.00
2022-10-02T06:41:07.147Z,100.00
2022-10-02T06:46:55.819Z,100.00
2022-10-02T06:52:37.979Z,100.00
2022-10-02T06:55:31.640Z,100.00
2022-10-02T06:58:50.809Z,100.00
2022-10-02T07:04:42.172Z,100.00
2022-10-02T07:10:20.360Z,100.00
2022-10-02T07:20:05.437Z,100.00
2022-10-02T07:25:57.672Z,100.00
2022-10-02T07:34:34.302Z,100.00
2022-10-02T07:40:28.798Z,99.41
2022-10-02T07:52:28.840Z,97.63
2022-10-02T07:58:07.952Z,94.96
2022-10-02T08:03:51.692Z,94.89
2022-10-02T08:09:31.312Z,93.16
2022-10-02T08:15:16.359Z,92.93
2022-10-02T08:20:57.426Z,92.42
2022-10-02T08:26:44.196Z,91.83
2022-10-02T08:32:22.398Z,91.04
2022-10-02T08:35:14.544Z,90.10
2022-10-02T08:41:36.953Z,89.22
2022-10-02T08:44:49.001Z,89.23
2022-10-02T08:51:20.842Z,92.47
2022-10-02T09:00:27.065Z,93.62
2022-10-02T09:16:38.471Z,100.00
2022-10-02T09:19:35.547Z,100.00
2022-10-02T09:23:00.618Z,100.00
2022-10-02T09:29:08.146Z,100.00
2022-10-02T09:35:26.301Z,100.00
2022-10-02T09:41:34.859Z,100.00
2022-10-02T09:47:44.618Z,100.00
2022-10-02T09:54:55.627Z,100.00
2022-10-02T09:58:07.261Z,100.00
2022-10-02T10:08:02.107Z,100.00
2022-10-02T10:14:08.889Z,100.00
2022-10-02T10:20:49.832Z,100.00
2022-10-02T10:27:30.977Z,100.00
2022-10-02T10:30:28.180Z,100.00
2022-10-02T10:33:56.254Z,100.00
2022-10-02T10:40:02.617Z,100.00
2022-10-02T10:43:32.078Z,100.00
2022-10-02T10:50:08.561Z,100.00
2022-10-02T10:55:59.084Z,100.00
2022-10-02T11:05:09.994Z,100.00
2022-10-02T11:08:10.696Z,100.00
2022-10-02T11:14:00.159Z,100.00
2022-10-02T11:17:15.839Z,100.00
2022-10-02T11:20:35.671Z,100.00
2022-10-02T11:26:26.400Z,100.00
2022-10-02T11:32:47.682Z,100.00
2022-10-02T11:36:03.996Z,100.00
2022-10-02T11:42:27.683Z,100.00
2022-10-02T11:48:39.043Z,98.34
2022-10-02T11:52:08.991Z,98.70
2022-10-02T11:58:11.999Z,95.10
2022-10-02T12:04:22.447Z,92.84
2022-10-02T12:17:19.334Z,82.82
2022-10-02T12:23:31.772Z,84.07
2022-10-02T12:29:22.621Z,82.97
2022-10-02T12:40:41.704Z,81.63
2022-10-02T12:43:46.289Z,82.04
2022-10-02T12:47:20.220Z,83.38
2022-10-02T12:53:41.698Z,84.33
2022-10-02T12:57:15.361Z,83.79
2022-10-02T13:03:10.164Z,82.77
2022-10-02T13:09:17.781Z,83.97
2022-10-02T13:12:30.916Z,83.02
2022-10-02T13:21:13.635Z,81.58
2022-10-02T13:29:54.430Z,80.05
2022-10-02T13:36:03.850Z,79.62
2022-10-02T13:42:18.015Z,78.70
2022-10-02T13:45:12.802Z,78.17
2022-10-02T13:50:56.990Z,80.32
2022-10-02T13:56:51.358Z,82.58
2022-10-02T14:02:57.504Z,80.56
2022-10-02T14:05:49.493Z,78.52
2022-10-02T14:08:47.428Z,76.50
2022-10-02T14:11:43.308Z,75.42
2022-10-02T14:14:39.931Z,74.96
2022-10-02T14:17:34.631Z,74.83
2022-10-02T14:20:34.683Z,73.74
2022-10-02T14:23:45.854Z,74.45
2022-10-02T14:32:45.104Z,78.49
2022-10-02T14:36:19.446Z,78.53
2022-10-02T14:42:25.701Z,77.77
2022-10-02T14:48:15.683Z,78.47
2022-10-02T14:54:31.314Z,76.68
2022-10-02T15:00:24.479Z,74.62
2022-10-02T15:06:26.223Z,75.16
2022-10-02T15:12:16.481Z,78.12
2022-10-02T15:15:09.062Z,77.94
2022-10-02T15:18:14.457Z,78.78
2022-10-02T15:23:45.943Z,76.37
2022-10-02T15:26:40.523Z,77.12
2022-10-02T15:33:10.238Z,76.00
2022-10-02T15:39:34.538Z,73.89
2022-10-02T15:45:36.539Z,73.13
2022-10-02T15:51:46.219Z,74.22
2022-10-02T15:54:42.041Z,74.01
2022-10-02T16:00:29.924Z,71.20
2022-10-02T16:03:19.667Z,71.72
2022-10-02T16:06:12.858Z,69.88
2022-10-02T16:12:33.295Z,68.77
2022-10-02T16:15:26.112Z,69.04
2022-10-02T16:21:25.957Z,70.68
2022-10-02T16:27:25.296Z,72.22
2022-10-02T16:30:15.652Z,72.08
2022-10-02T16:33:20.640Z,73.02
2022-10-02T16:36:45.545Z,73.52
2022-10-02T16:42:26.849Z,71.08
2022-10-02T16:48:15.977Z,70.29
2022-10-02T16:56:47.632Z,71.33
2022-10-02T16:59:45.960Z,71.64
2022-10-02T17:11:07.886Z,70.19
2022-10-02T17:16:52.139Z,69.74
2022-10-02T17:22:33.331Z,69.25
2022-10-02T17:28:20.087Z,70.61
2022-10-02T17:34:25.969Z,71.54
2022-10-02T17:37:49.122Z,71.44
2022-10-02T17:40:39.553Z,72.08
2022-10-02T17:46:28.497Z,72.14
2022-10-02T17:55:31.621Z,72.46
2022-10-02T18:01:13.152Z,73.45
2022-10-02T18:04:09.666Z,73.61
2022-10-02T18:09:52.539Z,73.09
2022-10-02T18:13:05.305Z,73.12
2022-10-02T18:16:00.840Z,73.08
2022-10-02T18:19:00.148Z,73.10
2022-10-02T18:25:03.526Z,74.47
2022-10-02T18:30:58.896Z,75.90
2022-10-02T18:33:58.331Z,76.14
2022-10-02T18:39:42.477Z,76.74
2022-10-02T18:45:42.101Z,76.77
2022-10-02T18:49:05.666Z,76.88
2022-10-02T18:52:31.251Z,77.18
2022-10-02T18:55:43.472Z,77.82
2022-10-02T19:01:50.606Z,78.38
2022-10-02T19:07:49.080Z,78.39
2022-10-02T19:13:27.295Z,81.09
2022-10-02T19:19:11.987Z,80.98
2022-10-02T19:24:53.742Z,81.78
2022-10-02T19:27:45.488Z,82.54
2022-10-02T19:33:21.815Z,83.46
2022-10-02T19:39:04.975Z,83.37
2022-10-02T19:41:55.528Z,82.92
2022-10-02T19:47:38.791Z,81.38
2022-10-02T19:50:28.663Z,81.38
2022-10-02T19:56:15.975Z,80.53
2022-10-02T19:59:08.301Z,80.73
2022-10-02T20:05:07.304Z,80.66
2022-10-02T20:10:42.779Z,82.64
2022-10-02T20:16:42.177Z,87.24
2022-10-02T20:22:25.298Z,91.09
2022-10-02T20:28:03.395Z,96.04
2022-10-02T20:33:43.630Z,97.09
2022-10-02T20:39:15.109Z,99.07
2022-10-02T20:44:47.497Z,98.96
2022-10-02T20:50:58.103Z,99.96
2022-10-02T21:00:15.679Z,100.00
2022-10-02T21:03:26.327Z,100.00
2022-10-02T21:12:51.534Z,100.00
2022-10-02T21:22:19.856Z,100.00
2022-10-02T21:31:34.114Z,100.00
2022-10-02T21:37:16.436Z,100.00
2022-10-02T21:46:53.368Z,100.00
2022-10-02T21:50:20.254Z,100.00
2022-10-02T21:56:54.254Z,100.00
2022-10-02T22:03:31.489Z,100.00
2022-10-02T22:09:29.155Z,100.00
2022-10-02T22:15:16.039Z,100.00
2022-10-02T22:21:03.842Z,100.00
2022-10-02T22:26:42.448Z,100.00
2022-10-02T22:29:36.065Z,100.00
2022-10-02T22:35:50.859Z,100.00
2022-10-02T22:38:40.758Z,100.00
2022-10-02T22:41:30.938Z,100.00
2022-10-02T22:47:30.224Z,100.00
2022-10-02T22:53:13.803Z,100.00
2022-10-02T22:58:51.095Z,100.00
2022-10-02T23:04:31.172Z,100.00
2022-10-02T23:10:18.261Z,100.00
2022-10-02T23:13:12.588Z,100.00
2022-10-02T23:16:02.892Z,100.00
2022-10-02T23:21:47.580Z,100.00
2022-10-02T23:27:25.514Z,100.00
2022-10-02T23:33:11.882Z,100.00
2022-10-02T23:38:48.185Z,100.00
2022-10-02T23:44:34.239Z,100.00
2022-10-02T23:54:31.778Z,100.00
